Terminal Aerodrome Forecast
Issued by NWS Bismarck, ND

Home | Current Version | Previous Version | Graphics & Text | Print | Product List | Glossary On
Versions: 1 2 3 4 5 6 7 8 9 10 11 12 13 14 15 16 17 18 19
000
FTUS43 KBIS 181134
TAFBIS
TAF
KBIS 181134Z 1812/1912 05004KT P6SM SKC
     FM181500 17004KT P6SM SKC
     FM182300 11006KT P6SM FEW110 SCT180
     FM190600 11011KT P6SM SCT110 BKN150 WS020/15035KT=

USA.gov is the U.S. government's official web portal to all federal, state and local government web resources and services.